Time;durP1;ratioP1;P1;durP2;ratioP2;P2;SDS_P1;SDS_P2;PMS_P1;PMS_P2;Temp;Humidity;BMP_temperature;BMP_pressure;BME280_temperature;BME280_humidity;BME280_pressure;Samples;Min_cycle;Max_cycle;Signal;HPM_P1;HPM_P2
2022/07/03 00:02:13;;;;;;;14.77;9.00;;;;;;;21.02;57.63;101195.03;5074023;28;20036;-83
2022/07/03 00:04:39;;;;;;;18.80;9.00;;;;;;;21.03;57.17;101202.22;5054913;28;20040;-83
2022/07/03 00:07:04;;;;;;;21.20;8.68;;;;;;;21.18;57.01;101227.34;5038841;28;20126;-83
2022/07/03 00:09:30;;;;;;;14.05;8.80;;;;;;;21.17;57.56;101222.13;5036296;28;20059;-83
2022/07/03 00:11:55;;;;;;;15.65;8.93;;;;;;;21.12;57.64;101214.56;5048062;28;20182;-82
2022/07/03 00:14:22;;;;;;;13.77;9.30;;;;;;;21.10;58.23;101213.94;5070158;28;20037;-82
2022/07/03 00:16:49;;;;;;;16.98;9.25;;;;;;;21.01;58.46;101198.84;5070408;28;20040;-83
2022/07/03 00:19:15;;;;;;;13.95;9.15;;;;;;;20.94;58.71;101204.34;5054830;28;20124;-82
2022/07/03 00:21:46;;;;;;;15.18;9.60;;;;;;;20.96;59.14;101223.25;5023477;28;20041;-83
2022/07/03 00:24:41;;;;;;;12.10;9.00;;;;;;;20.94;59.86;101215.28;5084744;28;20094;-83
2022/07/03 00:27:09;;;;;;;16.23;9.60;;;;;;;20.83;59.75;101196.81;5049060;28;20056;-84
2022/07/03 00:29:41;;;;;;;17.58;9.40;;;;;;;20.91;60.02;101203.91;5061694;28;20468;-81
2022/07/03 00:32:13;;;;;;;15.15;9.63;;;;;;;20.96;60.22;101206.88;5052033;28;20032;-83
2022/07/03 00:34:46;;;;;;;18.17;12.13;;;;;;;20.92;60.07;101200.97;5056330;28;20499;-83
2022/07/03 00:37:13;;;;;;;17.52;10.43;;;;;;;20.83;60.66;101207.75;5037067;28;20105;-83
2022/07/03 00:39:41;;;;;;;17.73;8.93;;;;;;;20.70;60.58;101203.16;5045084;28;20498;-82
2022/07/03 00:42:11;;;;;;;17.50;8.98;;;;;;;20.91;60.08;101207.50;5035141;28;21633;-83
2022/07/03 00:44:48;;;;;;;15.00;9.02;;;;;;;20.71;59.49;101193.06;5028218;28;20106;-82
2022/07/03 00:47:16;;;;;;;16.80;9.15;;;;;;;20.86;59.40;101189.03;5040844;28;20041;-84
2022/07/03 00:49:44;;;;;;;13.43;8.85;;;;;;;20.92;58.87;101205.63;5018050;28;20043;-82
2022/07/03 00:52:11;;;;;;;15.35;8.45;;;;;;;20.90;58.61;101199.53;5058293;28;20557;-84
2022/07/03 00:54:36;;;;;;;13.60;8.57;;;;;;;20.97;58.52;101203.06;5035123;28;20485;-84
2022/07/03 00:57:04;;;;;;;12.38;8.43;;;;;;;20.90;58.10;101200.34;5033401;28;20049;-82
2022/07/03 00:59:35;;;;;;;14.18;8.65;;;;;;;20.90;57.83;101194.06;5033520;28;20033;-83
2022/07/03 01:02:07;;;;;;;14.73;8.27;;;;;;;20.85;57.93;101181.03;5033601;28;20056;-83
2022/07/03 01:04:36;;;;;;;16.15;8.30;;;;;;;21.06;57.77;101197.13;5049664;28;20040;-82
2022/07/03 01:07:07;;;;;;;15.65;7.90;;;;;;;21.04;58.14;101198.41;5048700;28;20041;-81
2022/07/03 01:10:00;;;;;;;15.63;8.07;;;;;;;21.15;58.04;101194.16;5031453;28;20443;-83
2022/07/03 01:12:36;;;;;;;14.25;8.02;;;;;;;21.23;57.96;101199.38;5050447;28;20037;-83
2022/07/03 01:15:11;;;;;;;11.70;7.57;;;;;;;21.16;58.74;101187.63;5041775;28;20132;-83
2022/07/03 01:17:43;;;;;;;13.15;8.20;;;;;;;21.10;59.32;101191.25;5020184;28;20103;-84
2022/07/03 01:20:08;;;;;;;14.25;8.75;;;;;;;21.18;59.76;101193.72;5038727;28;20094;-83
2022/07/03 01:22:42;;;;;;;17.98;8.80;;;;;;;21.17;59.92;101192.88;5028851;28;20041;-83
2022/07/03 01:25:33;;;;;;;14.32;8.88;;;;;;;21.08;59.91;101194.19;5037732;28;20128;-83
2022/07/03 01:28:08;;;;;;;13.55;8.57;;;;;;;21.11;59.67;101193.75;5048853;28;20063;-83
2022/07/03 01:30:46;;;;;;;15.05;8.15;;;;;;;21.16;59.70;101190.34;5049393;28;20312;-83
2022/07/03 01:33:16;;;;;;;16.55;8.35;;;;;;;21.13;59.89;101185.34;5047253;28;20045;-83
2022/07/03 01:35:49;;;;;;;16.25;8.50;;;;;;;21.14;60.56;101187.88;5030794;28;20037;-83
2022/07/03 01:38:18;;;;;;;14.07;8.60;;;;;;;21.04;60.49;101185.56;5026252;28;20041;-83
2022/07/03 01:40:44;;;;;;;18.50;8.35;;;;;;;21.08;60.66;101184.09;5049731;28;20499;-83
2022/07/03 01:43:12;;;;;;;17.25;8.50;;;;;;;20.90;60.62;101167.56;5031161;28;20038;-82
2022/07/03 01:45:47;;;;;;;16.48;8.75;;;;;;;21.11;60.64;101182.81;5050904;28;20036;-83
2022/07/03 01:48:16;;;;;;;16.92;8.90;;;;;;;20.90;61.22;101174.94;5046279;28;20033;-84
2022/07/03 01:50:42;;;;;;;20.95;9.18;;;;;;;21.04;61.38;101190.22;5031685;28;20040;-83
2022/07/03 01:53:10;;;;;;;14.40;9.48;;;;;;;21.03;61.68;101186.63;5020799;28;20046;-83
2022/07/03 01:55:38;;;;;;;16.17;9.00;;;;;;;20.83;62.81;101185.88;5032730;28;20058;-85
2022/07/03 01:58:06;;;;;;;12.82;9.30;;;;;;;20.85;62.27;101162.75;5035344;28;20041;-83
2022/07/03 02:00:42;;;;;;;13.48;9.38;;;;;;;20.99;61.92;101182.66;5072092;28;20067;-84
2022/07/03 02:03:10;;;;;;;15.63;9.15;;;;;;;20.95;62.39;101177.84;5062651;28;20036;-83
2022/07/03 02:05:44;;;;;;;17.67;9.73;;;;;;;20.89;62.46;101168.63;5052391;28;20473;-82
2022/07/03 02:08:44;;;;;;;17.35;9.63;;;;;;;21.06;62.56;101179.91;5031138;28;20376;-84
2022/07/03 02:11:16;;;;;;;12.18;9.00;;;;;;;21.12;62.95;101179.03;5024249;28;20036;-83
2022/07/03 02:13:54;;;;;;;14.38;9.02;;;;;;;21.18;62.74;101189.09;5048263;28;20039;-83
2022/07/03 02:16:22;;;;;;;16.85;9.43;;;;;;;21.17;62.64;101184.69;5070369;28;20037;-84
2022/07/03 02:19:03;;;;;;;15.32;9.25;;;;;;;21.05;62.82;101178.22;5052510;28;20036;-83
2022/07/03 02:21:28;;;;;;;17.70;10.05;;;;;;;20.91;63.37;101182.06;5036160;28;20424;-82
2022/07/03 02:24:19;;;;;;;15.50;10.10;;;;;;;20.98;63.61;101174.69;5030512;28;20037;-82
2022/07/03 02:26:54;;;;;;;17.23;9.95;;;;;;;20.96;63.59;101180.38;5019260;28;20083;-83
2022/07/03 02:29:25;;;;;;;18.08;10.13;;;;;;;20.97;63.77;101189.41;5042141;28;20095;-83
2022/07/03 02:32:12;;;;;;;15.98;10.02;;;;;;;21.00;63.89;101178.03;5027868;28;20116;-83
2022/07/03 02:34:40;;;;;;;19.23;10.30;;;;;;;20.87;64.20;101181.66;5052547;28;20138;-83
2022/07/03 02:37:11;;;;;;;20.05;10.27;;;;;;;20.89;64.53;101173.25;5036344;28;20032;-83
2022/07/03 02:39:52;;;;;;;24.00;11.25;;;;;;;20.98;64.29;101180.16;5049026;28;20108;-86
2022/07/03 02:42:29;;;;;;;21.00;12.95;;;;;;;20.96;64.65;101185.00;5044968;28;20044;-84
2022/07/03 02:44:57;;;;;;;28.63;16.50;;;;;;;20.95;64.55;101183.31;5059813;28;20537;-83
2022/07/03 02:47:32;;;;;;;31.85;18.40;;;;;;;20.97;64.66;101179.31;5040234;28;20510;-83
2022/07/03 02:50:10;;;;;;;26.30;18.33;;;;;;;20.98;64.29;101180.16;5092278;28;20025;-85
2022/07/03 02:52:42;;;;;;;25.75;17.17;;;;;;;21.04;64.32;101184.75;5064393;28;20040;-86
2022/07/03 02:55:21;;;;;;;28.20;17.58;;;;;;;21.05;64.32;101183.69;5061187;28;20040;-83
2022/07/03 02:57:49;;;;;;;25.27;15.82;;;;;;;20.91;64.48;101177.44;5053025;28;20484;-84
2022/07/03 03:00:14;;;;;;;27.52;15.98;;;;;;;21.01;64.51;101190.66;5050245;28;20040;-83
2022/07/03 03:02:49;;;;;;;23.20;15.10;;;;;;;21.07;64.60;101187.03;5031634;28;20036;-84
2022/07/03 03:05:27;;;;;;;23.90;15.27;;;;;;;21.11;64.54;101188.28;5069989;28;20090;-83
2022/07/03 03:08:13;;;;;;;24.83;14.32;;;;;;;21.02;64.67;101197.78;5069871;28;20089;-83
2022/07/03 03:10:42;;;;;;;25.17;14.80;;;;;;;20.93;64.83;101197.22;5070218;28;20062;-84
2022/07/03 03:13:10;;;;;;;28.58;14.68;;;;;;;20.96;64.99;101195.94;5048924;28;20096;-84
2022/07/03 03:15:37;;;;;;;23.05;13.90;;;;;;;20.83;64.75;101181.25;5023633;28;20063;-84
2022/07/03 03:18:07;;;;;;;20.05;13.38;;;;;;;21.05;64.56;101191.91;5035701;28;20116;-84
2022/07/03 03:20:38;;;;;;;22.90;13.30;;;;;;;21.05;64.33;101187.25;5048899;28;20040;-84
2022/07/03 03:23:40;;;;;;;20.98;12.98;;;;;;;21.17;64.15;101194.78;5050964;28;20031;-83
2022/07/03 03:26:07;;;;;;;20.70;12.63;;;;;;;21.22;63.75;101197.69;5069273;28;20052;-83
2022/07/03 03:28:32;;;;;;;18.13;11.80;;;;;;;21.10;64.14;101186.63;5051306;28;20036;-82
2022/07/03 03:31:00;;;;;;;26.15;15.52;;;;;;;20.97;64.84;101183.94;5051056;28;20040;-83
2022/07/03 03:33:26;;;;;;;27.83;15.65;;;;;;;20.93;64.72;101186.28;5035285;28;20048;-83
2022/07/03 03:35:52;;;;;;;24.98;15.45;;;;;;;20.87;64.99;101187.97;5034893;28;20443;-84
2022/07/03 03:38:19;;;;;;;21.77;14.27;;;;;;;20.96;64.95;101206.88;5037768;28;20064;-84
2022/07/03 03:40:48;;;;;;;25.02;13.30;;;;;;;21.02;65.02;101200.50;5039055;28;20040;-82
2022/07/03 03:43:15;;;;;;;19.95;13.40;;;;;;;20.74;65.39;101207.13;5038850;28;20455;-82
2022/07/03 03:45:42;;;;;;;17.40;13.07;;;;;;;20.76;65.24;101185.91;5073922;28;20492;-82
2022/07/03 03:48:08;;;;;;;21.10;12.50;;;;;;;20.97;65.08;101203.06;5039919;28;20074;-84
2022/07/03 03:50:36;;;;;;;21.73;12.73;;;;;;;21.00;64.86;101198.03;5054514;28;20389;-84
2022/07/03 03:53:05;;;;;;;20.38;12.55;;;;;;;21.17;64.16;101203.81;5072455;28;20112;-83
2022/07/03 03:55:31;;;;;;;22.73;11.73;;;;;;;21.16;63.72;101193.09;5036727;28;20045;-83
2022/07/03 03:57:57;;;;;;;18.13;11.98;;;;;;;21.16;63.51;101191.19;5048045;28;20083;-83
2022/07/03 04:00:26;;;;;;;19.08;12.15;;;;;;;21.29;63.96;101196.59;5034996;28;20120;-84
2022/07/03 04:02:54;;;;;;;22.10;12.38;;;;;;;21.34;64.04;101200.56;5054991;28;20032;-83
2022/07/03 04:05:20;;;;;;;17.27;12.18;;;;;;;21.32;63.95;101197.22;5043811;28;20094;-84
2022/07/03 04:07:46;;;;;;;21.73;12.63;;;;;;;21.40;63.61;101196.97;5046762;28;20067;-83
2022/07/03 04:10:12;;;;;;;19.02;11.73;;;;;;;21.58;62.93;101205.28;5026678;28;20036;-85
2022/07/03 04:12:38;;;;;;;25.98;12.40;;;;;;;21.67;62.55;101197.66;5034335;28;20047;-84
2022/07/03 04:15:08;;;;;;;20.00;11.68;;;;;;;21.96;61.94;101207.13;5050123;28;20033;-83
2022/07/03 04:17:33;;;;;;;18.42;12.10;;;;;;;22.20;61.32;101201.88;5052848;28;20025;-83
2022/07/03 04:20:03;;;;;;;21.55;13.18;;;;;;;22.38;60.56;101209.28;5036078;28;20512;-82
2022/07/03 04:22:31;;;;;;;23.15;14.27;;;;;;;22.48;59.63;101204.97;5010005;28;20343;-83
2022/07/03 04:24:57;;;;;;;25.08;15.02;;;;;;;22.69;58.27;101206.44;5069587;28;20149;-84
2022/07/03 04:27:25;;;;;;;30.45;14.52;;;;;;;22.89;58.52;101200.72;5053602;28;20032;-83
2022/07/03 04:29:50;;;;;;;23.08;14.75;;;;;;;23.10;57.11;101212.31;5054919;28;20123;-84
2022/07/03 04:32:16;;;;;;;21.88;14.57;;;;;;;23.28;56.28;101206.78;5052027;28;20119;-84
2022/07/03 04:34:46;;;;;;;28.85;14.88;;;;;;;23.38;56.23;101218.03;5052782;28;20041;-84
2022/07/03 04:37:11;;;;;;;20.40;13.35;;;;;;;23.48;55.57;101209.22;5032400;28;20124;-85
2022/07/03 04:39:38;;;;;;;22.55;13.10;;;;;;;23.69;54.93;101213.34;5050953;28;20519;-85
2022/07/03 04:42:04;;;;;;;27.55;16.55;;;;;;;23.78;54.74;101211.97;5071069;28;20039;-84
2022/07/03 04:44:29;;;;;;;31.25;21.23;;;;;;;23.96;54.07;101210.25;5034252;28;20426;-85
2022/07/03 04:47:00;;;;;;;31.58;23.13;;;;;;;24.12;53.98;101215.03;5052026;28;20055;-85
2022/07/03 04:49:30;;;;;;;33.03;22.25;;;;;;;24.15;53.65;101208.22;5053864;28;20431;-85
2022/07/03 04:52:01;;;;;;;33.03;21.20;;;;;;;24.35;53.72;101213.34;5050317;28;20113;-84
2022/07/03 04:54:28;;;;;;;32.17;18.92;;;;;;;24.56;53.52;101218.28;5071953;28;20041;-83
2022/07/03 04:56:54;;;;;;;27.50;17.92;;;;;;;24.67;52.86;101221.25;5052630;28;20040;-84
2022/07/03 04:59:24;;;;;;;22.88;14.15;;;;;;;24.84;53.02;101217.53;5035254;28;20040;-84
2022/07/03 05:01:49;;;;;;;17.70;12.68;;;;;;;24.99;52.61;101219.75;5053887;28;20472;-83
2022/07/03 05:04:16;;;;;;;16.42;11.73;;;;;;;25.19;52.44;101213.00;5033765;28;20039;-83
2022/07/03 05:06:44;;;;;;;16.17;11.45;;;;;;;25.32;52.60;101218.22;5051670;28;20461;-83
2022/07/03 05:09:11;;;;;;;16.95;10.95;;;;;;;25.58;51.83;101210.47;5032911;28;20481;-82
2022/07/03 05:11:37;;;;;;;18.40;11.07;;;;;;;25.82;51.59;101203.72;5046456;28;20800;-83
2022/07/03 05:14:04;;;;;;;16.23;9.00;;;;;;;26.00;52.25;101219.19;5047173;28;20094;-84
2022/07/03 05:16:33;;;;;;;16.38;9.77;;;;;;;26.25;52.05;101206.94;5067309;28;20481;-83
2022/07/03 05:18:58;;;;;;;15.93;9.27;;;;;;;26.33;50.67;101212.81;5048110;28;20167;-83
2022/07/03 05:21:27;;;;;;;12.63;8.73;;;;;;;26.44;50.65;101215.75;5037346;28;20495;-80
2022/07/03 05:23:54;;;;;;;20.48;8.73;;;;;;;26.59;50.37;101209.66;5068579;28;20124;-81
2022/07/03 05:26:25;;;;;;;18.00;9.73;;;;;;;26.70;50.34;101205.94;5051112;28;20036;-84
2022/07/03 05:28:52;;;;;;;14.32;9.30;;;;;;;26.78;50.54;101218.44;5070310;28;20040;-81
2022/07/03 05:31:17;;;;;;;13.43;8.05;;;;;;;26.94;49.57;101214.78;5034439;28;20067;-82
2022/07/03 05:33:43;;;;;;;12.85;9.60;;;;;;;27.11;49.45;101220.22;5052534;28;20384;-82
2022/07/03 05:36:11;;;;;;;16.20;8.55;;;;;;;27.42;48.70;101218.69;5045503;28;20044;-84
2022/07/03 05:41:24;;;;;;;10.10;7.28;;;;;;;27.78;48.48;101217.09;5046998;28;20101;-86
2022/07/03 05:43:51;;;;;;;7.63;5.38;;;;;;;28.05;47.94;101215.41;5034028;28;20033;-85
2022/07/03 05:46:17;;;;;;;7.95;5.65;;;;;;;28.24;48.41;101224.97;5068722;28;20115;-83
2022/07/03 05:48:43;;;;;;;9.18;4.65;;;;;;;28.26;48.39;101220.00;5053030;28;20420;-81
2022/07/03 05:51:09;;;;;;;9.48;3.88;;;;;;;28.35;47.31;101226.72;5048729;28;20116;-81
2022/07/03 05:53:37;;;;;;;6.65;4.25;;;;;;;28.30;46.71;101210.06;5067252;28;20158;-83
2022/07/03 05:56:02;;;;;;;8.38;4.53;;;;;;;28.51;47.72;101235.13;5027337;28;20102;-81
2022/07/03 05:58:29;;;;;;;4.97;4.22;;;;;;;28.47;47.69;101231.22;5035561;28;20077;-82
2022/07/03 06:00:55;;;;;;;8.27;5.00;;;;;;;28.66;48.12;101239.91;5056864;28;20427;-82
2022/07/03 06:03:20;;;;;;;13.20;8.40;;;;;;;28.51;48.76;101240.66;5077412;28;20029;-79
2022/07/03 06:05:46;;;;;;;11.80;8.50;;;;;;;28.49;47.98;101232.63;5072366;28;20074;-82
2022/07/03 06:08:14;;;;;;;5.50;4.00;;;;;;;28.68;47.75;101246.84;5031011;28;20106;-80
2022/07/03 06:10:40;;;;;;;8.80;4.75;;;;;;;28.64;48.71;101239.38;5047380;28;20804;-82
2022/07/03 06:13:06;;;;;;;7.32;4.20;;;;;;;28.72;48.25;101236.91;5032408;28;20041;-84
2022/07/03 06:15:32;;;;;;;7.40;5.22;;;;;;;29.01;46.63;101240.09;5046929;28;20098;-81
2022/07/03 06:17:59;;;;;;;8.93;4.10;;;;;;;29.29;44.07;101251.00;5044664;28;20040;-81
2022/07/03 06:20:26;;;;;;;6.43;4.28;;;;;;;29.04;45.51;101249.78;5029168;28;20123;-83
2022/07/03 06:22:53;;;;;;;8.35;4.20;;;;;;;29.01;45.41;101244.81;5044562;28;20365;-79
2022/07/03 06:25:18;;;;;;;9.95;4.70;;;;;;;29.00;46.51;101243.13;5026147;28;20111;-79
2022/07/03 06:27:47;;;;;;;8.55;5.15;;;;;;;29.17;43.08;101252.09;5007509;28;20136;-81
2022/07/03 06:30:13;;;;;;;6.05;3.70;;;;;;;29.18;40.72;101245.44;5064426;28;20044;-79
2022/07/03 06:32:41;;;;;;;6.47;3.42;;;;;;;29.25;42.20;101250.72;5027838;28;20072;-80
2022/07/03 06:35:13;;;;;;;6.20;3.50;;;;;;;29.39;43.89;101246.34;5048296;28;20053;-81
2022/07/03 06:38:02;;;;;;;4.65;3.10;;;;;;;29.78;41.83;101254.22;5068617;28;20039;-81
2022/07/03 06:40:37;;;;;;;4.60;2.53;;;;;;;29.99;40.37;101246.75;5061502;28;20067;-79
2022/07/03 06:43:03;;;;;;;9.27;3.15;;;;;;;29.67;40.77;101245.03;5049843;28;20147;-81
2022/07/03 06:45:29;;;;;;;4.70;3.03;;;;;;;29.67;40.27;101253.34;5042161;28;20111;-82
2022/07/03 06:47:55;;;;;;;5.55;2.70;;;;;;;29.29;41.13;101251.00;5058731;28;20131;-81
2022/07/03 06:50:20;;;;;;;4.03;2.60;;;;;;;29.01;41.21;101242.03;5063997;28;20373;-81
2022/07/03 06:52:46;;;;;;;8.25;3.10;;;;;;;29.18;42.28;101250.97;5066046;28;20158;-82
2022/07/03 06:55:12;;;;;;;3.90;2.53;;;;;;;29.10;43.43;101251.50;5024276;28;20064;-83
2022/07/03 06:57:41;;;;;;;3.58;2.40;;;;;;;29.22;42.36;101260.41;5047301;28;20053;-82
2022/07/03 07:00:15;;;;;;;3.92;2.72;;;;;;;28.97;42.13;101261.09;5054928;28;20477;-83
2022/07/03 07:02:40;;;;;;;6.85;2.88;;;;;;;29.39;42.27;101264.91;5042352;28;20029;-86
2022/07/03 07:05:09;;;;;;;5.75;2.80;;;;;;;29.70;42.11;101251.97;5013828;28;20192;-83
2022/07/03 07:07:42;;;;;;;4.65;2.80;;;;;;;29.23;43.14;101255.72;5048247;28;20037;-82
2022/07/03 07:10:16;;;;;;;8.00;3.03;;;;;;;29.54;43.08;101264.09;5049407;28;20041;-82
2022/07/03 07:12:49;;;;;;;4.18;2.58;;;;;;;29.28;42.51;101241.03;5045112;28;20032;-80
2022/07/03 07:15:17;;;;;;;5.93;2.40;;;;;;;28.99;42.42;101258.06;5030067;28;20128;-78
2022/07/03 07:17:46;;;;;;;4.35;2.45;;;;;;;29.04;39.69;101258.91;5045828;28;20032;-79
2022/07/03 07:20:11;;;;;;;3.97;2.50;;;;;;;29.31;39.25;101257.09;5045759;28;20167;-80
2022/07/03 07:22:38;;;;;;;4.93;2.78;;;;;;;29.59;39.05;101256.63;5029368;28;20140;-82
2022/07/03 07:25:04;;;;;;;5.28;2.47;;;;;;;29.82;38.14;101260.03;5047736;28;20440;-83
2022/07/03 07:27:30;;;;;;;4.85;2.72;;;;;;;29.98;38.58;101258.09;5048663;28;20061;-80
2022/07/03 07:29:55;;;;;;;4.85;2.97;;;;;;;29.80;40.04;101242.84;5027596;28;20077;-81
2022/07/03 07:32:21;;;;;;;4.38;2.60;;;;;;;29.69;38.27;101260.53;5047530;28;20115;-81
2022/07/03 07:34:47;;;;;;;7.88;2.72;;;;;;;29.60;38.15;101265.78;5047240;28;21508;-79
2022/07/03 07:37:12;;;;;;;7.50;2.70;;;;;;;29.58;37.54;101260.50;5031251;28;20537;-79
2022/07/03 07:39:41;;;;;;;3.63;2.30;;;;;;;29.50;38.56;101262.97;5047461;28;20091;-81
2022/07/03 07:42:07;;;;;;;9.60;3.35;;;;;;;29.93;38.44;101250.59;5030768;28;20033;-80
2022/07/03 07:44:32;;;;;;;10.75;2.60;;;;;;;30.49;38.80;101270.00;5047324;28;20066;-78
2022/07/03 07:46:58;;;;;;;7.38;3.45;;;;;;;30.60;36.45;101270.84;5047273;28;20036;-78
2022/07/03 07:49:23;;;;;;;3.20;2.20;;;;;;;30.11;37.71;101265.88;5023270;28;20040;-81
2022/07/03 07:51:49;;;;;;;4.30;2.30;;;;;;;29.91;40.94;101274.16;5013855;28;20155;-78
2022/07/03 07:54:15;;;;;;;4.25;2.53;;;;;;;30.29;40.36;101281.13;5028522;28;20025;-79
2022/07/03 07:56:43;;;;;;;4.40;2.60;;;;;;;30.41;40.46;101272.50;5031584;28;20444;-78
2022/07/03 07:59:10;;;;;;;9.68;2.60;;;;;;;29.83;38.33;101279.16;5046649;28;20053;-78
2022/07/03 08:07:03;;;;;;;5.28;2.80;;;;;;;29.50;43.70;101258.28;5047089;28;20051;-77
2022/07/03 08:09:29;;;;;;;5.55;2.95;;;;;;;29.48;42.76;101287.34;5047164;28;20025;-78
2022/07/03 08:11:54;;;;;;;8.05;2.35;;;;;;;29.76;40.50;101272.19;5046928;28;20037;-78
2022/07/03 08:14:20;;;;;;;3.03;2.42;;;;;;;29.91;39.41;101285.25;5046925;28;20086;-78
2022/07/03 08:16:46;;;;;;;8.98;2.78;;;;;;;29.97;42.10;101278.59;5045321;28;20394;-82
2022/07/03 08:19:17;;;;;;;4.95;2.50;;;;;;;29.97;42.52;101282.22;5027716;28;20079;-84
2022/07/03 08:21:43;;;;;;;7.00;2.70;;;;;;;29.82;42.56;101282.19;5043874;28;20143;-79
2022/07/03 08:24:10;;;;;;;4.03;2.80;;;;;;;29.69;41.72;101293.78;5043000;28;20045;-78
2022/07/03 08:26:36;;;;;;;7.18;2.47;;;;;;;30.36;43.18;101284.44;5047597;28;20032;-82
2022/07/03 08:29:03;;;;;;;4.65;2.50;;;;;;;30.96;40.77;101283.81;5044571;28;20047;-78
2022/07/03 08:31:30;;;;;;;5.90;2.60;;;;;;;30.78;40.81;101288.81;5043132;28;20037;-81
2022/07/03 08:33:55;;;;;;;3.40;2.45;;;;;;;30.85;40.60;101272.72;5034640;28;20080;-78
2022/07/03 08:36:21;;;;;;;3.72;2.13;;;;;;;31.04;39.83;101291.53;5050222;28;20327;-81
2022/07/03 08:38:47;;;;;;;5.25;2.30;;;;;;;31.29;39.31;101288.66;5049711;28;20111;-78
2022/07/03 08:41:12;;;;;;;5.75;2.25;;;;;;;30.84;39.61;101282.19;5050510;28;20047;-78
2022/07/03 08:43:38;;;;;;;4.75;2.20;;;;;;;30.83;40.57;101288.78;5050586;28;20037;-80
2022/07/03 08:46:03;;;;;;;5.13;2.72;;;;;;;31.18;39.74;101267.59;5003519;28;20036;-77
2022/07/03 08:48:29;;;;;;;5.60;2.47;;;;;;;31.55;39.91;101291.34;5049732;28;20445;-80
2022/07/03 08:50:55;;;;;;;4.35;2.28;;;;;;;31.73;39.54;101287.88;5050142;28;20040;-78
2022/07/03 08:53:20;;;;;;;8.60;2.60;;;;;;;32.46;38.33;101294.56;5029992;28;20413;-78
2022/07/03 08:55:47;;;;;;;6.15;2.40;;;;;;;32.58;37.19;101291.41;5014305;28;20397;-78
2022/07/03 08:58:14;;;;;;;4.55;2.40;;;;;;;32.47;38.35;101287.84;5026540;28;20037;-79
2022/07/03 09:00:40;;;;;;;3.78;2.30;;;;;;;32.87;37.58;101283.00;5034004;28;20079;-78
2022/07/03 09:03:07;;;;;;;4.70;2.63;;;;;;;33.48;37.02;101286.16;5049789;28;20033;-78
2022/07/03 09:05:33;;;;;;;4.20;2.60;;;;;;;34.01;36.08;101283.16;5034656;28;20025;-79
2022/07/03 09:07:58;;;;;;;11.65;2.40;;;;;;;34.43;35.37;101278.56;5006403;28;20454;-79
2022/07/03 09:10:24;;;;;;;4.32;2.97;;;;;;;34.46;34.76;101292.69;5034060;28;20037;-79
2022/07/03 09:12:49;;;;;;;5.00;2.70;;;;;;;34.49;34.47;101282.91;5050846;28;20465;-78
2022/07/03 09:15:15;;;;;;;4.18;2.17;;;;;;;34.69;29.55;101281.72;5049916;28;20485;-78
2022/07/03 09:17:55;;;;;;;3.72;2.40;;;;;;;35.42;29.89;101298.66;5049257;28;20458;-79
2022/07/03 09:20:20;;;;;;;4.35;2.75;;;;;;;35.41;30.46;101297.84;5022656;28;20044;-79
2022/07/03 09:22:46;;;;;;;4.32;2.70;;;;;;;36.35;29.77;101298.16;5028621;28;20052;-81
2022/07/03 09:25:14;;;;;;;5.10;2.28;;;;;;;35.34;26.50;101294.66;5031323;28;20124;-79
2022/07/03 09:27:49;;;;;;;8.32;2.10;;;;;;;35.12;24.36;101288.97;5050244;28;20033;-79
2022/07/03 09:30:16;;;;;;;3.60;2.10;;;;;;;35.74;24.87;101289.28;5046910;28;20049;-77
2022/07/03 09:32:45;;;;;;;3.60;2.00;;;;;;;36.00;21.83;101286.69;5032423;28;20124;-78
2022/07/03 09:35:20;;;;;;;3.58;2.10;;;;;;;36.26;24.15;101294.47;5049517;28;20048;-77
2022/07/03 09:38:01;;;;;;;5.35;2.05;;;;;;;36.88;24.47;101279.66;5049308;28;20056;-77
2022/07/03 09:40:46;;;;;;;3.35;2.13;;;;;;;37.13;23.55;101284.53;5047843;28;20029;-80
2022/07/03 09:43:11;;;;;;;5.65;2.15;;;;;;;37.34;23.26;101283.91;5034575;28;20147;-76
2022/07/03 09:45:54;;;;;;;4.10;1.95;;;;;;;37.06;23.43;101283.31;5049876;28;20094;-77
2022/07/03 09:48:33;;;;;;;5.15;3.05;;;;;;;37.90;23.65;101276.53;5050359;28;20429;-77
2022/07/03 09:51:28;;;;;;;4.80;2.10;;;;;;;38.17;24.12;101280.16;5051026;28;20064;-79
2022/07/03 09:54:00;;;;;;;5.03;2.50;;;;;;;39.10;22.83;101277.69;5027169;28;20064;-77
2022/07/03 09:56:34;;;;;;;6.05;2.08;;;;;;;38.66;23.22;101286.31;5049466;28;20053;-79
2022/07/03 09:59:09;;;;;;;6.90;2.37;;;;;;;39.47;21.76;101284.41;5050726;28;20057;-81
2022/07/03 10:01:36;;;;;;;6.55;2.33;;;;;;;38.80;19.25;101277.66;5049094;28;20028;-78
2022/07/03 10:04:14;;;;;;;3.80;2.10;;;;;;;39.31;18.45;101280.50;5048162;28;20037;-78
2022/07/03 10:06:57;;;;;;;3.70;2.13;;;;;;;39.25;19.18;101277.91;5048336;28;20499;-77
2022/07/03 10:09:24;;;;;;;4.18;2.17;;;;;;;38.90;20.20;101277.28;5047753;28;20480;-77
2022/07/03 10:11:50;;;;;;;4.07;2.15;;;;;;;40.25;19.55;101274.44;5048251;28;20033;-76
2022/07/03 10:14:17;;;;;;;5.78;2.20;;;;;;;40.04;17.86;101274.47;5049984;28;20047;-76
2022/07/03 10:16:44;;;;;;;3.08;2.00;;;;;;;39.86;18.11;101271.03;5046873;28;20100;-79
2022/07/03 10:19:23;;;;;;;2.65;1.85;;;;;;;39.98;17.10;101259.00;5047010;28;20083;-78
2022/07/03 10:21:52;;;;;;;5.10;2.20;;;;;;;39.90;18.81;101272.00;5032117;28;20028;-76
2022/07/03 10:24:19;;;;;;;4.00;2.70;;;;;;;39.53;19.64;101270.97;5049736;28;20033;-77
2022/07/03 10:26:45;;;;;;;5.22;2.10;;;;;;;39.78;17.38;101243.75;5011009;28;20386;-81
2022/07/03 10:29:10;;;;;;;4.35;2.20;;;;;;;40.08;17.20;101244.47;5040444;28;20033;-78
2022/07/03 10:31:39;;;;;;;5.15;1.90;;;;;;;40.13;18.04;101249.06;5048623;28;20468;-80
2022/07/03 10:34:05;;;;;;;4.45;2.05;;;;;;;38.68;19.92;101246.63;5049205;28;20025;-78
2022/07/03 10:36:31;;;;;;;4.63;2.30;;;;;;;38.08;20.24;101248.47;5032506;28;20064;-77
2022/07/03 10:38:57;;;;;;;6.03;2.40;;;;;;;37.46;21.20;101253.22;5049023;28;20037;-77
2022/07/03 10:46:57;;;;;;;6.18;2.30;;;;;;;37.21;22.89;101234.44;5048472;28;20135;-78
2022/07/03 10:49:23;;;;;;;8.93;2.30;;;;;;;36.93;22.14;101240.28;5043023;28;20025;-78
2022/07/03 10:51:57;;;;;;;5.05;2.30;;;;;;;37.15;22.63;101231.78;5029015;28;20037;-77
2022/07/03 10:54:29;;;;;;;7.10;2.50;;;;;;;36.19;23.61;101238.94;5026923;28;20120;-77
2022/07/03 10:56:57;;;;;;;7.10;2.20;;;;;;;36.05;23.18;101239.00;5047544;28;20442;-79
2022/07/03 10:59:47;;;;;;;5.90;2.75;;;;;;;35.55;23.02;101238.28;5049508;28;20032;-77
2022/07/03 11:02:22;;;;;;;6.97;2.50;;;;;;;35.18;24.10;101237.44;5036017;28;20489;-78
2022/07/03 11:05:12;;;;;;;11.40;2.15;;;;;;;34.70;24.62;101240.66;5049333;28;20029;-79
2022/07/03 11:07:49;;;;;;;7.60;2.38;;;;;;;34.31;24.47;101230.78;5042748;28;20047;-78
2022/07/03 11:10:15;;;;;;;5.60;2.20;;;;;;;33.56;24.51;101229.75;5048299;28;20093;-79
2022/07/03 11:13:16;;;;;;;6.32;2.03;;;;;;;33.47;25.39;101231.56;5047632;28;20105;-79
2022/07/03 11:15:47;;;;;;;6.55;2.40;;;;;;;32.97;27.96;101220.81;4996150;28;20032;-84
2022/07/03 11:18:25;;;;;;;6.05;2.28;;;;;;;32.94;24.96;101226.94;5031857;28;20029;-78
2022/07/03 11:20:51;;;;;;;6.93;2.25;;;;;;;33.07;25.92;101222.66;5048554;28;20063;-81
2022/07/03 11:23:20;;;;;;;3.22;1.98;;;;;;;32.30;26.46;101218.75;5049857;28;20140;-79
2022/07/03 11:25:46;;;;;;;6.25;2.25;;;;;;;32.67;26.02;101219.22;5035215;28;20043;-78
2022/07/03 11:28:33;;;;;;;5.13;1.90;;;;;;;32.57;26.24;101223.78;5045736;28;20049;-79
2022/07/03 11:31:13;;;;;;;3.70;2.17;;;;;;;32.59;29.46;101218.75;5046725;28;20489;-81
2022/07/03 11:33:43;;;;;;;6.47;2.10;;;;;;;32.47;25.04;101215.50;5050280;28;20044;-78
2022/07/03 11:36:14;;;;;;;4.90;2.00;;;;;;;31.66;28.77;101228.19;5045029;28;20072;-78
2022/07/03 11:38:41;;;;;;;3.97;2.17;;;;;;;31.53;29.79;101216.59;5034984;28;20038;-78
2022/07/03 11:41:08;;;;;;;4.03;1.90;;;;;;;31.26;28.74;101219.81;5030129;28;20130;-78
2022/07/03 11:43:35;;;;;;;3.35;1.75;;;;;;;31.29;27.26;101216.44;5046759;28;20049;-77
2022/07/03 11:46:03;;;;;;;5.43;2.08;;;;;;;31.02;28.63;101216.03;5029592;28;20053;-78